Bei Facebook empfehlenBei Twitter postenGoogle plusPinterest

Das Wetter im Erzgebirge am 20.03.2017

Wetter und Klima am 20.03.2017 Holzhau im Erzgebirge (630m ü.NN)
Letzte gemessene Temperatur und Uhrzeit der Messung23:45:00 Uhr6.40 °C
Temperatur (Maximum / Höchstwert) und Uhrzeit der Messung16:45:00 Uhr10.80 °C
Temperatur (Minimum / Tiefstwert) und Uhrzeit der Messung22:30:005.10 °C
Errechneter Absolutwert der Temperaturschwankungen zwischen Tmin und Tmax des Tages5.70 K
Errechnete Tagesmitteltemperatur7.40313 °C
Gesamt - Niederschlag des Tages (in flüssiger Form)0.00 Liter / m²
Luftdruck (Maximum / Höchstwert) und Zeitpunkt der Messung10:45:00 Uhr1006.70 hPa
Luftdruck (Minimum / Tiefstwert) und Zeitpunkt der Messung00:15:00 Uhr1003.20 hPa
Errechneter Absolutwert der Luftdruckschwankungen des Tages3.50 hPa
Höchste gemessene Windgeschwindigkeit und Uhrzeit der Messung14:00:00 Uhr13.68 km/h
Errechnete Windhäufigkeit in Relation zu den Messwerten des Tages41.66667 %
Niedrigste Windkühle (Windchill) und Zeitpunkt der Messung03:15:00 Uhr3.80 °C
Taupunkt (Maximum / Höchstwert) und Uhrzeit der Messung13:00:00 Uhr7.00 °C
Taupunkt (Minimum / Tiefstwert) und Uhrzeit der Messung03:15:003.00 °C
Anzahl der automatisch eingelesenen Messwerte 96

Detaillierte Wetter- und Klima- Messwerte für den 20.03.2017 in Holzhau im Erzgebirge (630m ü.NN)
ZeitTemperaturLuftdruckRel. LuftfeuchteWindWindrichtungWindchillTaupunktNiederschlag l/m²
23:45:006.40 °C1003.90 hPa84.00 %3.90 °C 
23:30:006.20 °C1004.00 hPa86.00 %1.44 km/hWSW6.20 °C4.00 °C 
23:15:006.10 °C1004.10 hPa87.00 %4.10 °C 
23:00:005.80 °C1004.00 hPa89.00 %4.10 °C 
22:45:005.30 °C1004.10 hPa90.00 %3.80 °C 
22:30:005.10 °C1003.90 hPa90.00 %3.60 °C 
22:15:005.30 °C1004.10 hPa89.00 %3.60 °C 
22:00:005.40 °C1004.20 hPa89.00 %3.70 °C 
21:45:005.50 °C1004.30 hPa89.00 %3.80 °C 
21:30:005.80 °C1004.40 hPa88.00 %4.00 °C 
21:15:006.10 °C1004.20 hPa87.00 %4.10 °C 
21:00:006.50 °C1004.40 hPa87.00 %4.50 °C 
20:45:006.60 °C1004.70 hPa87.00 %4.60 °C 
20:30:006.60 °C1004.90 hPa87.00 %4.60 °C 
20:15:006.60 °C1005.10 hPa87.00 %4.60 °C 
20:00:006.50 °C1004.90 hPa86.00 %4.30 °C 
19:45:006.60 °C1004.80 hPa86.00 %4.40 °C 
19:30:006.70 °C1004.90 hPa85.00 %4.40 °C 
19:15:006.80 °C1004.80 hPa84.00 %4.30 °C 
19:00:006.90 °C1004.90 hPa82.00 %4.00 °C 
18:45:007.30 °C1004.80 hPa82.00 %4.40 °C 
18:30:007.80 °C1004.60 hPa80.00 %4.60 °C 
18:15:008.40 °C1004.50 hPa80.00 %5.20 °C 
18:00:008.90 °C1004.70 hPa79.00 %5.50 °C 
17:45:009.40 °C1004.90 hPa78.00 %6.48 km/hSW8.70 °C5.80 °C 
17:30:009.90 °C1004.80 hPa77.00 %1.08 km/hSW9.90 °C6.10 °C 
17:15:0010.10 °C1005.00 hPa76.00 %6.10 °C 
17:00:0010.40 °C1005.10 hPa77.00 %6.50 °C 
16:45:0010.80 °C1005.00 hPa76.00 %7.56 km/hSW10.00 °C6.70 °C 
16:30:0010.40 °C1005.00 hPa78.00 %6.70 °C 
16:15:0010.40 °C1005.30 hPa77.00 %11.88 km/hW8.80 °C6.50 °C 
16:00:0010.60 °C1005.40 hPa78.00 %6.90 °C 
15:45:009.90 °C1005.30 hPa79.00 %2.52 km/hWNW9.90 °C6.40 °C 
15:30:009.80 °C1005.70 hPa78.00 %0.72 km/hWNW9.80 °C6.20 °C 
15:15:009.90 °C1005.70 hPa78.00 %1.44 km/hWNW9.90 °C6.20 °C 
15:00:009.90 °C1005.70 hPa78.00 %2.52 km/hNW9.90 °C6.20 °C 
14:45:0010.30 °C1005.80 hPa78.00 %5.76 km/hW9.90 °C6.60 °C 
14:30:0010.30 °C1005.70 hPa78.00 %6.60 °C 
14:15:0010.30 °C1005.60 hPa78.00 %0.36 km/hNW10.30 °C6.60 °C 
14:00:0010.30 °C1005.90 hPa78.00 %13.68 km/hSW8.40 °C6.60 °C 
13:45:0010.40 °C1006.10 hPa79.00 %6.90 °C 
13:30:009.90 °C1006.20 hPa80.00 %6.60 °C 
13:15:0010.10 °C1006.20 hPa80.00 %6.80 °C 
13:00:0010.10 °C1006.20 hPa81.00 %1.08 km/hW10.10 °C7.00 °C 
12:45:009.80 °C1006.20 hPa82.00 %3.24 km/hWSW9.80 °C6.90 °C 
12:30:009.00 °C1006.60 hPa84.00 %3.96 km/hWSW9.00 °C6.40 °C 
12:15:008.80 °C1006.40 hPa84.00 %6.20 °C 
12:00:008.80 °C1006.30 hPa84.00 %6.20 °C 
11:45:008.50 °C1006.50 hPa86.00 %6.30 °C 
11:30:008.50 °C1006.50 hPa86.00 %5.40 km/hWSW7.90 °C6.30 °C 
11:15:008.30 °C1006.50 hPa87.00 %5.04 km/hWNW7.80 °C6.30 °C 
11:00:007.70 °C1006.40 hPa88.00 %5.80 °C 
10:45:007.50 °C1006.70 hPa87.00 %5.50 °C 
10:30:007.70 °C1006.70 hPa86.00 %5.50 °C 
10:15:007.80 °C1006.40 hPa86.00 %5.40 km/hNW7.10 °C5.60 °C 
10:00:007.80 °C1006.20 hPa86.00 %2.16 km/hW7.80 °C5.60 °C 
09:45:007.50 °C1006.30 hPa88.00 %4.32 km/hW7.50 °C5.60 °C 
09:30:007.20 °C1006.30 hPa88.00 %3.96 km/hNW7.20 °C5.30 °C 
09:15:007.00 °C1006.30 hPa89.00 %5.76 km/hWSW6.10 °C5.30 °C 
09:00:006.80 °C1006.20 hPa89.00 %2.88 km/hSW6.80 °C5.10 °C 
08:45:006.60 °C1006.20 hPa90.00 %6.84 km/hW5.30 °C5.10 °C 
08:30:006.30 °C1006.10 hPa90.00 %4.68 km/hW6.30 °C4.80 °C 
08:15:006.10 °C1006.00 hPa91.00 %4.70 °C 
08:00:005.90 °C1005.70 hPa91.00 %4.50 °C 
07:45:005.80 °C1005.40 hPa92.00 %4.60 °C 
07:30:005.60 °C1005.60 hPa92.00 %4.40 °C 
07:15:005.60 °C1005.70 hPa91.00 %4.20 °C 
07:00:005.60 °C1005.70 hPa91.00 %1.44 km/hNW5.60 °C4.20 °C 
06:45:005.60 °C1005.70 hPa91.00 %4.20 °C 
06:30:005.60 °C1005.50 hPa91.00 %4.20 °C 
06:15:005.60 °C1005.50 hPa90.00 %4.10 °C 
06:00:005.60 °C1005.30 hPa90.00 %4.10 °C 
05:45:005.80 °C1005.20 hPa89.00 %5.76 km/hN4.70 °C4.10 °C 
05:30:005.80 °C1005.10 hPa89.00 %4.10 °C 
05:15:005.90 °C1004.90 hPa87.00 %6.84 km/hW4.50 °C3.90 °C 
05:00:006.10 °C1004.80 hPa87.00 %4.10 °C 
04:45:006.20 °C1004.60 hPa86.00 %0.36 km/hWNW6.20 °C4.00 °C 
04:30:006.10 °C1004.40 hPa84.00 %6.12 km/hW5.00 °C3.60 °C 
04:15:006.20 °C1004.50 hPa84.00 %3.70 °C 
04:00:006.20 °C1004.40 hPa82.00 %0.36 km/hNNO6.20 °C3.40 °C 
03:45:006.20 °C1004.30 hPa81.00 %3.20 °C 
03:30:006.30 °C1004.20 hPa80.00 %3.10 °C 
03:15:006.40 °C1004.20 hPa79.00 %12.96 km/hNW3.80 °C3.00 °C 
03:00:006.40 °C1004.30 hPa80.00 %6.12 km/hWNW5.30 °C3.20 °C 
02:45:006.40 °C1004.10 hPa80.00 %6.12 km/hNW5.30 °C3.20 °C 
02:30:006.50 °C1004.10 hPa80.00 %5.40 km/hNW5.60 °C3.30 °C 
02:15:006.50 °C1004.20 hPa81.00 %3.50 °C 
02:00:006.60 °C1004.00 hPa81.00 %5.40 km/hNW5.80 °C3.60 °C 
01:45:006.60 °C1004.00 hPa82.00 %3.80 °C 
01:30:006.60 °C1003.70 hPa82.00 %10.44 km/hW4.50 °C3.80 °C 
01:15:006.60 °C1003.80 hPa84.00 %4.10 °C 
01:00:006.80 °C1003.40 hPa85.00 %4.50 °C 
00:45:006.80 °C1003.40 hPa87.00 %1.08 km/hWNW6.80 °C4.80 °C 
00:30:006.90 °C1003.40 hPa88.00 %1.08 km/hW6.90 °C5.10 °C 
00:15:006.90 °C1003.20 hPa89.00 %5.20 °C 
00:00:006.90 °C1003.20 hPa88.00 %1.80 km/hW6.90 °C5.10 °C 

Permanenter Link zu dieser Seite: Wetter im Erzgebirge am 20.03.2017
Performance-Info: Die Erstellung der Seite / Statistik(en) / Tabelle(n) erforderte 5 Datenbankserver-Abfrage(n) und dauerte 97 Millisekunden. (Dieser Messwert ist von der Gesamt-Auslastung des Servers abhängig.)
Erzgebirge - Wetter | Erzgebirge - Wetter (Mobilgeräte) | Komplette Klimadatenbank